createdAt,value
2017-11-23T00:00:09.435Z,99968.67
2017-11-23T00:04:32.398Z,99967.53
2017-11-23T00:06:35.233Z,99972.36
2017-11-23T00:08:37.848Z,99974.88
2017-11-23T00:10:39.903Z,99972.06
2017-11-23T00:12:41.867Z,99966.40
2017-11-23T00:14:43.934Z,99962.59
2017-11-23T00:16:45.752Z,99947.54
2017-11-23T00:18:49.421Z,99948.08
2017-11-23T00:20:51.590Z,99940.79
2017-11-23T00:22:53.915Z,99944.28
2017-11-23T00:24:56.441Z,99944.02
2017-11-23T00:26:58.108Z,99936.69
2017-11-23T00:29:00.939Z,99938.97
2017-11-23T00:31:06.239Z,99948.94
2017-11-23T00:40:59.704Z,99953.20
2017-11-23T00:43:01.570Z,99954.16
2017-11-23T00:45:03.993Z,99950.80
2017-11-23T00:47:07.411Z,99949.97
2017-11-23T00:49:09.773Z,99956.47
2017-11-23T00:51:11.561Z,99964.64
2017-11-23T00:53:13.702Z,99953.09
2017-11-23T00:55:15.978Z,99964.42
2017-11-23T00:57:18.429Z,99955.07
2017-11-23T00:59:20.775Z,99963.63
2017-11-23T01:01:22.906Z,99953.29
2017-11-23T01:03:25.034Z,99944.84
2017-11-23T01:05:27.716Z,99939.19
2017-11-23T01:07:29.981Z,99936.60
2017-11-23T01:09:32.978Z,99928.92
2017-11-23T01:11:35.197Z,99936.38
2017-11-23T01:13:37.710Z,99931.63
2017-11-23T01:15:39.672Z,99937.59
2017-11-23T01:17:42.662Z,99936.53
2017-11-23T01:27:34.858Z,99909.02
2017-11-23T01:29:36.802Z,99909.06
2017-11-23T01:31:39.593Z,99910.81
2017-11-23T01:33:42.087Z,99909.52
2017-11-23T01:35:45.038Z,99903.02
2017-11-23T01:37:47.712Z,99895.84
2017-11-23T01:39:49.587Z,99902.30
2017-11-23T01:41:51.801Z,99904.59
2017-11-23T01:43:54.015Z,99901.59
2017-11-23T01:45:56.398Z,99898.20
2017-11-23T01:47:58.218Z,99895.61
2017-11-23T01:50:00.915Z,99891.78
2017-11-23T01:52:03.235Z,99888.78
2017-11-23T01:54:05.868Z,99889.73
2017-11-23T01:56:08.043Z,99885.06
2017-11-23T01:58:12.214Z,99874.50
2017-11-23T02:00:14.719Z,99872.75
2017-11-23T02:02:16.717Z,99869.03
2017-11-23T02:04:18.194Z,99865.58
2017-11-23T02:06:20.228Z,99857.98
2017-11-23T02:08:22.242Z,99856.27
2017-11-23T02:10:24.076Z,99839.13
2017-11-23T02:12:26.082Z,99834.42
2017-11-23T02:14:28.056Z,99834.84
2017-11-23T02:16:29.975Z,99827.67
2017-11-23T02:18:31.828Z,99835.00
2017-11-23T02:20:33.576Z,99829.91
2017-11-23T02:22:36.278Z,99834.66
2017-11-23T02:24:38.074Z,99827.41
2017-11-23T02:26:39.999Z,99816.44
2017-11-23T02:28:42.948Z,99827.02
2017-11-23T02:30:44.649Z,99823.15
2017-11-23T02:32:46.261Z,99823.53
2017-11-23T02:34:48.241Z,99826.53
2017-11-23T02:36:50.201Z,99840.40
2017-11-23T02:38:52.238Z,99842.87
2017-11-23T02:40:54.215Z,99851.56
2017-11-23T02:42:56.114Z,99860.53
2017-11-23T02:44:58.214Z,99862.36
2017-11-23T02:47:00.212Z,99858.59
2017-11-23T02:49:02.075Z,99841.31
2017-11-23T02:51:04.115Z,99830.30
2017-11-23T02:53:06.181Z,99827.34
2017-11-23T02:55:11.269Z,99819.70
2017-11-23T02:57:13.230Z,99830.57
2017-11-23T02:59:15.220Z,99835.63
2017-11-23T03:01:17.239Z,99832.28
2017-11-23T03:03:19.258Z,99821.64
2017-11-23T03:05:21.238Z,99815.23
2017-11-23T03:07:23.203Z,99798.14
2017-11-23T03:09:25.195Z,99793.44
2017-11-23T03:11:27.330Z,99803.84
2017-11-23T03:13:29.231Z,99803.47
2017-11-23T03:17:30.882Z,99801.19
2017-11-23T03:19:33.358Z,99816.34
2017-11-23T03:21:35.255Z,99815.16
2017-11-23T03:23:37.892Z,99821.92
2017-11-23T03:25:40.202Z,99821.84
2017-11-23T03:27:42.950Z,99827.59
2017-11-23T03:29:45.832Z,99820.67
2017-11-23T03:31:47.871Z,99810.04
2017-11-23T03:33:49.971Z,99810.98
2017-11-23T03:35:52.426Z,99810.61
2017-11-23T03:38:56.252Z,99807.16
2017-11-23T03:40:58.713Z,99809.73
2017-11-23T03:43:00.944Z,99810.61
2017-11-23T03:45:03.664Z,99800.86
2017-11-23T03:47:05.223Z,99806.81
2017-11-23T03:49:07.219Z,99813.73
2017-11-23T03:51:12.731Z,99822.31
2017-11-23T03:53:15.418Z,99815.02
2017-11-23T03:55:17.842Z,99808.72
2017-11-23T03:57:19.937Z,99813.01
2017-11-23T03:59:22.142Z,99807.42
2017-11-23T04:01:24.402Z,99797.29
2017-11-23T04:03:27.086Z,99796.04
2017-11-23T04:05:29.958Z,99809.41
2017-11-23T04:07:31.909Z,99811.95
2017-11-23T04:09:34.072Z,99812.86
2017-11-23T04:11:36.848Z,99807.24
2017-11-23T04:13:38.902Z,99804.73
2017-11-23T04:15:41.258Z,99798.84
2017-11-23T04:17:43.881Z,99809.17
2017-11-23T04:19:46.546Z,99806.71
2017-11-23T04:21:48.815Z,99805.77
2017-11-23T04:26:13.041Z,99780.89
2017-11-23T04:28:15.088Z,99794.38
2017-11-23T04:30:17.643Z,99793.50
2017-11-23T04:32:19.929Z,99780.94
2017-11-23T04:34:22.394Z,99781.47
2017-11-23T04:36:25.093Z,99778.01
2017-11-23T04:38:27.762Z,99766.84
2017-11-23T04:40:30.959Z,99775.81
2017-11-23T04:42:33.545Z,99774.17
2017-11-23T04:44:35.894Z,99755.16
2017-11-23T04:46:38.593Z,99752.19
2017-11-23T04:48:40.940Z,99756.45
2017-11-23T04:50:42.999Z,99760.85
2017-11-23T04:52:45.503Z,99762.86
2017-11-23T04:54:48.063Z,99763.31
2017-11-23T04:56:50.843Z,99746.12
2017-11-23T04:58:53.429Z,99760.32
2017-11-23T05:00:56.000Z,99750.59
2017-11-23T05:02:58.567Z,99747.11
2017-11-23T05:05:01.369Z,99749.69
2017-11-23T05:07:03.918Z,99732.45
2017-11-23T05:09:06.096Z,99748.77
2017-11-23T05:11:08.569Z,99737.69
2017-11-23T05:13:10.883Z,99742.32
2017-11-23T05:15:14.938Z,99741.03
2017-11-23T05:17:17.762Z,99752.19
2017-11-23T05:19:20.853Z,99732.61
2017-11-23T05:21:24.019Z,99732.22
2017-11-23T05:23:26.458Z,99733.90
2017-11-23T05:25:29.167Z,99733.40
2017-11-23T05:27:32.054Z,99737.98
2017-11-23T05:29:34.822Z,99757.39
2017-11-23T05:32:02.548Z,99764.80
2017-11-23T05:34:04.972Z,99774.41
2017-11-23T05:36:07.553Z,99757.51
2017-11-23T05:38:11.607Z,99742.44
2017-11-23T05:40:13.917Z,99747.64
2017-11-23T05:42:16.525Z,99742.13
2017-11-23T05:44:18.773Z,99751.63
2017-11-23T05:46:20.763Z,99752.34
2017-11-23T05:48:23.110Z,99759.63
2017-11-23T05:50:25.991Z,99761.01
2017-11-23T05:52:29.152Z,99759.26
2017-11-23T05:54:31.967Z,99742.89
2017-11-23T05:56:34.938Z,99760.02
2017-11-23T05:58:38.055Z,99745.94
2017-11-23T06:00:40.819Z,99739.89
2017-11-23T06:02:43.827Z,99727.11
2017-11-23T06:04:46.915Z,99730.03
2017-11-23T06:06:49.398Z,99718.02
2017-11-23T06:08:52.879Z,99723.64
2017-11-23T06:10:55.281Z,99723.11
2017-11-23T06:12:58.047Z,99729.00
2017-11-23T06:15:01.997Z,99728.13
2017-11-23T06:17:05.033Z,99717.38
2017-11-23T06:19:07.996Z,99725.53
2017-11-23T06:21:10.995Z,99735.91
2017-11-23T06:23:16.141Z,99723.38
2017-11-23T06:25:19.008Z,99716.55
2017-11-23T06:27:22.127Z,99742.78
2017-11-23T06:29:25.015Z,99730.74
2017-11-23T06:31:28.087Z,99729.87
2017-11-23T06:33:31.127Z,99732.03
2017-11-23T06:35:34.963Z,99714.38
2017-11-23T06:37:37.883Z,99715.67
2017-11-23T06:39:40.787Z,99739.32
2017-11-23T06:41:43.712Z,99710.92
2017-11-23T06:43:46.505Z,99720.79
2017-11-23T06:45:49.595Z,99713.50
2017-11-23T06:47:52.819Z,99712.25
2017-11-23T06:57:47.721Z,99733.05
2017-11-23T06:59:50.897Z,99721.43
2017-11-23T07:01:53.921Z,99724.09
2017-11-23T07:03:57.743Z,99722.38
2017-11-23T07:06:00.083Z,99734.75
2017-11-23T07:08:03.003Z,99726.14
2017-11-23T07:10:06.714Z,99721.50
2017-11-23T07:12:10.388Z,99719.91
2017-11-23T07:14:13.604Z,99720.73
2017-11-23T07:16:16.074Z,99728.94
2017-11-23T07:18:18.273Z,99725.48
2017-11-23T07:20:20.577Z,99720.39
2017-11-23T07:22:22.549Z,99730.77
2017-11-23T07:24:24.277Z,99731.59
2017-11-23T07:26:27.281Z,99727.73
2017-11-23T07:28:29.993Z,99723.85
2017-11-23T07:30:32.067Z,99736.23
2017-11-23T07:32:34.360Z,99733.61
2017-11-23T07:34:36.746Z,99724.69
2017-11-23T07:36:38.711Z,99716.94
2017-11-23T07:38:40.867Z,99719.98
2017-11-23T07:40:45.815Z,99729.06
2017-11-23T07:42:48.339Z,99727.02
2017-11-23T07:44:50.283Z,99724.69
2017-11-23T07:46:52.866Z,99729.84
2017-11-23T07:48:54.812Z,99735.81
2017-11-23T07:50:57.718Z,99728.06
2017-11-23T07:52:59.752Z,99735.40
2017-11-23T07:55:02.018Z,99744.85
2017-11-23T07:57:04.063Z,99744.05
2017-11-23T07:59:06.506Z,99743.10
2017-11-23T08:01:08.278Z,99733.23
2017-11-23T08:03:10.479Z,99734.94
2017-11-23T08:05:12.613Z,99726.78
2017-11-23T08:07:14.425Z,99743.14
2017-11-23T08:09:16.555Z,99730.61
2017-11-23T08:11:18.531Z,99738.77
2017-11-23T08:13:20.328Z,99749.97
2017-11-23T08:15:22.325Z,99758.59
2017-11-23T08:17:24.565Z,99748.73
2017-11-23T08:19:26.746Z,99760.23
2017-11-23T08:21:28.606Z,99743.94
2017-11-23T08:23:30.853Z,99742.23
2017-11-23T08:25:33.283Z,99754.30
2017-11-23T08:27:36.488Z,99757.30
2017-11-23T08:29:38.727Z,99765.09
2017-11-23T08:31:41.888Z,99769.69
2017-11-23T08:33:44.846Z,99773.05
2017-11-23T08:35:47.799Z,99781.14
2017-11-23T08:37:49.827Z,99770.86
2017-11-23T08:39:51.735Z,99771.34
2017-11-23T08:41:54.494Z,99779.02
2017-11-23T08:43:56.706Z,99767.94
2017-11-23T08:45:58.979Z,99773.86
2017-11-23T08:48:01.478Z,99775.15
2017-11-23T08:50:03.728Z,99778.56
2017-11-23T08:52:05.640Z,99773.73
2017-11-23T08:54:07.748Z,99772.06
2017-11-23T08:56:09.663Z,99774.98
2017-11-23T08:58:12.123Z,99781.91
2017-11-23T09:00:14.301Z,99773.23
2017-11-23T09:02:16.503Z,99775.86
2017-11-23T09:04:18.335Z,99780.50
2017-11-23T09:06:20.323Z,99791.66
2017-11-23T09:08:22.336Z,99795.42
2017-11-23T09:10:24.276Z,99790.25
2017-11-23T09:12:32.717Z,99789.80
2017-11-23T09:14:34.685Z,99787.63
2017-11-23T09:16:36.347Z,99806.12
2017-11-23T09:18:38.494Z,99794.92
2017-11-23T09:20:40.472Z,99789.22
2017-11-23T09:22:42.358Z,99796.39
2017-11-23T09:24:45.216Z,99809.23
2017-11-23T09:26:47.409Z,99805.16
2017-11-23T09:28:49.303Z,99806.63
2017-11-23T09:30:51.436Z,99816.89
2017-11-23T09:32:53.313Z,99810.81
2017-11-23T09:34:55.519Z,99821.19
2017-11-23T09:36:57.270Z,99824.14
2017-11-23T09:38:59.743Z,99820.27
2017-11-23T09:41:01.874Z,99833.53
2017-11-23T09:43:04.107Z,99840.33
2017-11-23T09:45:06.323Z,99823.91
2017-11-23T09:47:08.765Z,99842.75
2017-11-23T09:49:10.977Z,99843.73
2017-11-23T09:51:13.104Z,99843.61
2017-11-23T09:53:15.395Z,99849.54
2017-11-23T09:55:20.832Z,99859.83
2017-11-23T09:57:22.693Z,99860.62
2017-11-23T09:59:25.107Z,99858.31
2017-11-23T10:01:27.361Z,99856.94
2017-11-23T10:03:29.528Z,99851.43
2017-11-23T10:05:31.344Z,99861.77
2017-11-23T10:07:33.459Z,99874.45
2017-11-23T10:09:35.457Z,99867.88
2017-11-23T10:11:37.371Z,99870.13
2017-11-23T10:13:39.300Z,99881.33
2017-11-23T10:15:44.402Z,99875.93
2017-11-23T10:17:46.345Z,99879.30
2017-11-23T10:19:48.486Z,99877.18
2017-11-23T10:21:50.919Z,99877.59
2017-11-23T10:26:00.465Z,99884.66
2017-11-23T10:28:03.753Z,99883.29
2017-11-23T10:30:06.912Z,99898.00
2017-11-23T10:32:10.060Z,99890.66
2017-11-23T10:34:13.089Z,99887.84
2017-11-23T10:36:17.071Z,99896.02
2017-11-23T10:38:19.610Z,99898.83
2017-11-23T10:40:22.382Z,99904.07
2017-11-23T10:50:22.129Z,99915.34
2017-11-23T10:52:26.313Z,99921.39
2017-11-23T10:54:56.996Z,99922.69
2017-11-23T10:56:59.965Z,99930.74
2017-11-23T10:59:02.891Z,99917.62
2017-11-23T11:01:05.792Z,99914.50
2017-11-23T11:03:09.178Z,99913.37
2017-11-23T11:05:12.015Z,99923.25
2017-11-23T11:07:15.038Z,99921.72
2017-11-23T11:09:18.006Z,99918.10
2017-11-23T11:11:24.060Z,99932.13
2017-11-23T11:13:27.896Z,99922.73
2017-11-23T11:15:30.863Z,99922.09
2017-11-23T11:17:34.147Z,99916.23
2017-11-23T11:19:37.012Z,99931.93
2017-11-23T11:21:40.018Z,99932.23
2017-11-23T11:23:42.872Z,99927.31
2017-11-23T11:25:45.870Z,99949.71
2017-11-23T11:27:48.782Z,99948.72
2017-11-23T11:29:51.933Z,99947.61
2017-11-23T11:31:54.938Z,99958.33
2017-11-23T11:33:58.187Z,99952.32
2017-11-23T11:37:42.595Z,99964.49
2017-11-23T11:39:45.485Z,99956.92
2017-11-23T11:50:05.928Z,99974.67
2017-11-23T11:52:08.725Z,99968.39
2017-11-23T11:54:11.798Z,99973.63
2017-11-23T11:56:14.867Z,99972.18
2017-11-23T12:06:00.157Z,99994.34
2017-11-23T12:08:02.994Z,99991.69
2017-11-23T12:10:05.958Z,99994.27
2017-11-23T12:12:08.812Z,99994.23
2017-11-23T12:14:17.348Z,99989.78
2017-11-23T12:16:26.132Z,99990.08
2017-11-23T12:18:35.020Z,99998.59
2017-11-23T12:20:44.058Z,99996.05
2017-11-23T12:23:05.176Z,99999.59
2017-11-23T12:25:09.131Z,100002.82
2017-11-23T12:27:12.745Z,100002.20
2017-11-23T12:29:20.972Z,99996.56
2017-11-23T12:31:26.487Z,100005.80
2017-11-23T12:33:29.739Z,99996.14
2017-11-23T12:35:32.117Z,100008.31
2017-11-23T12:37:34.372Z,100002.11
2017-11-23T12:39:36.552Z,100008.38
2017-11-23T12:41:38.853Z,100010.09
2017-11-23T12:43:41.128Z,100007.58
2017-11-23T12:45:43.720Z,100008.03
2017-11-23T12:47:45.730Z,100014.97
2017-11-23T12:49:47.464Z,100009.63
2017-11-23T12:51:49.462Z,100021.75
2017-11-23T12:53:51.347Z,100009.49
2017-11-23T12:55:53.824Z,100017.30
2017-11-23T12:57:56.465Z,100021.64
2017-11-23T12:59:58.439Z,100045.34
2017-11-23T13:02:00.470Z,100034.41
2017-11-23T13:04:02.525Z,100030.97
2017-11-23T13:06:04.315Z,100044.44
2017-11-23T13:08:06.301Z,100042.38
2017-11-23T13:10:09.247Z,100048.02
2017-11-23T13:12:11.878Z,100046.14
2017-11-23T13:14:14.671Z,100056.92
2017-11-23T13:16:16.778Z,100058.74
2017-11-23T13:18:18.898Z,100052.86
2017-11-23T13:20:22.021Z,100063.97
2017-11-23T13:22:24.321Z,100066.55
2017-11-23T13:24:26.548Z,100052.78
2017-11-23T13:26:29.779Z,100054.75
2017-11-23T13:28:31.823Z,100047.40
2017-11-23T13:30:34.092Z,100050.33
2017-11-23T13:32:39.716Z,100051.19
2017-11-23T13:34:42.666Z,100058.25
2017-11-23T13:36:44.246Z,100049.88
2017-11-23T13:38:47.760Z,100050.03
2017-11-23T13:40:50.600Z,100039.61
2017-11-23T13:42:52.651Z,100052.00
2017-11-23T13:44:55.790Z,100054.59
2017-11-23T13:46:58.432Z,100048.70
2017-11-23T13:49:00.280Z,100068.65
2017-11-23T13:51:02.346Z,100059.17
2017-11-23T13:53:04.431Z,100065.30
2017-11-23T13:55:06.882Z,100061.46
2017-11-23T13:57:08.781Z,100062.25
2017-11-23T13:59:10.862Z,100053.83
2017-11-23T14:01:12.734Z,100054.17
2017-11-23T14:03:14.703Z,100058.77
2017-11-23T14:05:16.938Z,100058.08
2017-11-23T14:07:20.181Z,100057.66
2017-11-23T14:09:22.436Z,100061.20
2017-11-23T14:11:27.462Z,100057.97
2017-11-23T14:13:30.893Z,100067.25
2017-11-23T14:15:32.907Z,100061.66
2017-11-23T14:17:36.038Z,100063.79
2017-11-23T14:19:38.352Z,100065.84
2017-11-23T14:21:40.704Z,100069.22
2017-11-23T14:23:44.038Z,100076.16
2017-11-23T14:25:46.825Z,100084.80
2017-11-23T14:27:49.879Z,100082.05
2017-11-23T14:29:52.638Z,100088.28
2017-11-23T14:31:54.746Z,100098.59
2017-11-23T14:33:57.698Z,100096.93
2017-11-23T14:35:59.750Z,100099.59
2017-11-23T14:38:01.892Z,100101.81
2017-11-23T14:40:03.701Z,100103.56
2017-11-23T14:42:05.708Z,100107.86
2017-11-23T14:44:08.439Z,100112.47
2017-11-23T14:46:10.308Z,100108.47
2017-11-23T14:48:12.314Z,100108.95
2017-11-23T14:50:15.976Z,100109.30
2017-11-23T14:52:19.741Z,100118.70
2017-11-23T14:54:21.736Z,100107.89
2017-11-23T14:56:23.703Z,100111.31
2017-11-23T14:58:26.608Z,100110.43
2017-11-23T15:00:28.358Z,100112.48
2017-11-23T15:02:30.798Z,100125.31
2017-11-23T15:04:33.416Z,100127.48
2017-11-23T15:06:35.319Z,100125.61
2017-11-23T15:08:37.726Z,100132.09
2017-11-23T15:10:39.684Z,100121.80
2017-11-23T15:12:42.088Z,100121.73
2017-11-23T15:14:44.585Z,100121.61
2017-11-23T15:16:47.832Z,100128.09
2017-11-23T15:18:50.921Z,100134.44
2017-11-23T15:20:53.393Z,100132.16
2017-11-23T15:22:55.314Z,100139.34
2017-11-23T15:24:57.969Z,100129.48
2017-11-23T15:27:00.135Z,100141.52
2017-11-23T15:29:02.328Z,100147.23
2017-11-23T15:31:05.359Z,100137.33
2017-11-23T15:33:08.515Z,100144.64
2017-11-23T15:35:10.535Z,100147.64
2017-11-23T15:37:12.453Z,100155.42
2017-11-23T15:39:15.992Z,100160.59
2017-11-23T15:41:19.131Z,100150.23
2017-11-23T15:43:21.341Z,100158.30
2017-11-23T15:45:25.204Z,100175.86
2017-11-23T15:47:31.467Z,100201.34
2017-11-23T15:49:33.263Z,100240.15
2017-11-23T15:51:35.421Z,100251.84
2017-11-23T15:53:37.311Z,100279.34
2017-11-23T15:55:41.090Z,100277.70
2017-11-23T15:57:43.716Z,100279.16
2017-11-23T15:59:45.925Z,100291.84
2017-11-23T16:01:49.046Z,100289.83
2017-11-23T16:03:53.342Z,100285.14
2017-11-23T16:05:58.352Z,100297.67
2017-11-23T16:08:03.315Z,100304.19
2017-11-23T16:10:08.139Z,100307.30
2017-11-23T16:12:12.139Z,100313.44
2017-11-23T16:14:16.115Z,100314.35
2017-11-23T16:16:19.997Z,100319.53
2017-11-23T16:18:23.153Z,100324.78
2017-11-23T16:20:25.923Z,100316.59
2017-11-23T16:22:28.957Z,100330.05
2017-11-23T16:24:32.148Z,100340.05
2017-11-23T16:26:36.008Z,100338.34
2017-11-23T16:28:40.261Z,100337.92
2017-11-23T16:30:44.304Z,100339.33
2017-11-23T16:32:48.263Z,100342.30
2017-11-23T16:34:51.967Z,100343.59
2017-11-23T16:39:38.571Z,100363.02
2017-11-23T16:41:45.306Z,100362.18
2017-11-23T16:43:51.376Z,100371.66
2017-11-23T16:46:10.281Z,100372.08
2017-11-23T16:48:20.704Z,100362.59
2017-11-23T16:50:30.132Z,100376.05
2017-11-23T16:52:40.064Z,100383.05
2017-11-23T16:57:42.689Z,100397.81
2017-11-23T16:59:52.890Z,100410.66
2017-11-23T17:04:54.948Z,100432.66
2017-11-23T17:07:02.025Z,100430.60
2017-11-23T17:09:11.322Z,100443.13
2017-11-23T17:11:21.279Z,100444.42
2017-11-23T17:16:09.138Z,100456.47
2017-11-23T17:18:13.644Z,100456.76
2017-11-23T17:20:17.858Z,100455.95
2017-11-23T17:22:22.233Z,100467.23
2017-11-23T17:24:26.022Z,100469.30
2017-11-23T17:26:30.122Z,100471.67
2017-11-23T17:28:35.939Z,100468.53
2017-11-23T17:30:40.061Z,100474.02
2017-11-23T17:32:43.877Z,100469.56
2017-11-23T17:34:47.616Z,100476.52
2017-11-23T17:36:51.293Z,100475.55
2017-11-23T17:38:56.849Z,100481.33
2017-11-23T17:41:02.252Z,100488.41
2017-11-23T17:43:05.006Z,100494.05
2017-11-23T17:45:08.993Z,100494.80
2017-11-23T17:47:11.554Z,100496.08
2017-11-23T17:49:13.931Z,100500.70
2017-11-23T17:51:16.890Z,100500.31
2017-11-23T17:53:19.596Z,100505.08
2017-11-23T17:55:21.760Z,100497.35
2017-11-23T17:57:23.896Z,100490.35
2017-11-23T17:59:26.375Z,100501.13
2017-11-23T18:01:28.804Z,100500.71
2017-11-23T18:03:34.142Z,100498.98
2017-11-23T18:05:36.864Z,100494.19
2017-11-23T18:07:39.431Z,100496.84
2017-11-23T18:09:41.711Z,100503.09
2017-11-23T18:11:43.986Z,100499.13
2017-11-23T18:13:46.568Z,100503.63
2017-11-23T18:15:48.908Z,100504.39
2017-11-23T18:17:51.508Z,100503.92
2017-11-23T18:19:53.964Z,100496.82
2017-11-23T18:21:56.446Z,100504.58
2017-11-23T18:23:58.390Z,100505.47
2017-11-23T18:27:44.426Z,100506.77
2017-11-23T18:30:44.850Z,100514.75
2017-11-23T18:32:47.407Z,100512.88
2017-11-23T18:34:49.908Z,100513.05
2017-11-23T18:36:53.446Z,100517.11
2017-11-23T18:38:55.971Z,100520.63
2017-11-23T18:41:51.674Z,100521.52
2017-11-23T18:45:15.871Z,100515.30
2017-11-23T18:47:17.942Z,100518.80
2017-11-23T18:49:20.122Z,100516.54
2017-11-23T18:51:22.477Z,100509.94
2017-11-23T18:53:24.870Z,100505.50
2017-11-23T18:55:27.452Z,100514.48
2017-11-23T18:57:29.925Z,100498.86
2017-11-23T18:59:35.709Z,100506.80
2017-11-23T19:01:37.920Z,100509.58
2017-11-23T19:03:40.416Z,100519.86
2017-11-23T19:05:43.307Z,100546.69
2017-11-23T19:07:45.874Z,100539.34
2017-11-23T19:09:48.854Z,100547.27
2017-11-23T19:11:51.064Z,100556.27
2017-11-23T19:13:53.816Z,100558.87
2017-11-23T19:15:56.082Z,100563.66
2017-11-23T19:17:58.756Z,100565.92
2017-11-23T19:20:00.917Z,100573.77
2017-11-23T19:22:03.524Z,100577.80
2017-11-23T19:24:05.875Z,100580.58
2017-11-23T19:26:08.843Z,100583.80
2017-11-23T19:28:11.434Z,100579.61
2017-11-23T19:30:13.688Z,100587.88
2017-11-23T19:32:15.332Z,100595.73
2017-11-23T19:34:17.727Z,100592.91
2017-11-23T19:36:19.700Z,100597.33
2017-11-23T19:38:21.809Z,100593.04
2017-11-23T19:40:23.887Z,100600.94
2017-11-23T19:42:26.400Z,100602.78
2017-11-23T19:44:28.942Z,100617.63
2017-11-23T19:46:31.068Z,100613.86
2017-11-23T19:48:33.796Z,100613.78
2017-11-23T19:50:35.850Z,100611.42
2017-11-23T19:52:38.099Z,100623.55
2017-11-23T19:54:40.613Z,100617.19
2017-11-23T19:56:42.971Z,100621.29
2017-11-23T19:58:45.222Z,100619.32
2017-11-23T20:00:47.843Z,100630.61
2017-11-23T20:02:50.868Z,100630.61
2017-11-23T20:04:53.393Z,100637.06
2017-11-23T20:06:55.467Z,100640.21
2017-11-23T20:08:57.743Z,100647.64
2017-11-23T20:11:01.949Z,100649.73
2017-11-23T20:13:04.330Z,100662.95
2017-11-23T20:21:08.581Z,100646.45
2017-11-23T20:23:10.955Z,100647.75
2017-11-23T20:25:13.428Z,100659.11
2017-11-23T20:27:15.237Z,100657.52
2017-11-23T20:29:17.278Z,100659.06
2017-11-23T20:31:19.793Z,100645.56
2017-11-23T20:33:21.867Z,100647.10
2017-11-23T20:35:24.356Z,100645.04
2017-11-23T20:37:26.714Z,100651.25
2017-11-23T20:47:37.853Z,100659.62
2017-11-23T20:49:40.427Z,100667.83
2017-11-23T20:51:42.254Z,100673.66
2017-11-23T21:13:09.067Z,100659.53
2017-11-23T21:15:11.556Z,100669.51
2017-11-23T21:17:13.915Z,100680.02
2017-11-23T21:19:16.219Z,100675.83
2017-11-23T21:21:18.437Z,100675.06
2017-11-23T21:23:20.720Z,100671.97
2017-11-23T21:25:23.782Z,100667.30
2017-11-23T21:27:25.849Z,100667.42
2017-11-23T21:29:27.807Z,100671.44
2017-11-23T21:31:29.989Z,100672.78
2017-11-23T21:33:32.087Z,100663.80
2017-11-23T21:35:34.717Z,100673.48
2017-11-23T21:37:36.987Z,100671.95
2017-11-23T21:39:58.960Z,100683.16
2017-11-23T21:42:01.408Z,100680.26
2017-11-23T21:44:03.866Z,100688.17
2017-11-23T21:46:06.078Z,100678.78
2017-11-23T21:48:08.557Z,100683.17
2017-11-23T21:50:10.871Z,100683.17
2017-11-23T21:52:13.038Z,100684.05
2017-11-23T21:54:15.233Z,100680.73
2017-11-23T21:56:17.592Z,100677.37
2017-11-23T22:00:03.376Z,100679.75
2017-11-23T22:02:05.918Z,100668.59
2017-11-23T22:04:08.014Z,100672.61
2017-11-23T22:09:50.544Z,100654.55
2017-11-23T22:11:52.791Z,100663.38
2017-11-23T22:13:54.962Z,100670.75
2017-11-23T22:15:57.572Z,100673.84
2017-11-23T22:17:59.520Z,100668.27
2017-11-23T22:20:01.873Z,100680.50
2017-11-23T22:22:03.959Z,100670.68
2017-11-23T22:24:06.011Z,100674.23
2017-11-23T22:26:08.244Z,100669.16
2017-11-23T22:28:10.553Z,100664.47
2017-11-23T22:30:12.784Z,100660.27
2017-11-23T22:32:14.771Z,100660.03
2017-11-23T22:34:16.721Z,100657.90
2017-11-23T22:36:18.668Z,100661.15
2017-11-23T22:38:24.232Z,100645.56
2017-11-23T22:40:26.766Z,100651.22
2017-11-23T22:42:29.903Z,100662.61
2017-11-23T22:44:32.760Z,100662.23
2017-11-23T22:46:34.856Z,100666.24
2017-11-23T22:48:36.931Z,100665.89
2017-11-23T22:50:39.067Z,100671.13
2017-11-23T22:52:41.572Z,100674.68
2017-11-23T22:55:32.886Z,100667.86
2017-11-23T22:57:34.964Z,100659.34
2017-11-23T22:59:37.257Z,100656.39
2017-11-23T23:01:39.771Z,100655.56
2017-11-23T23:03:42.232Z,100652.20
2017-11-23T23:05:44.275Z,100650.10
2017-11-23T23:07:46.729Z,100650.18
2017-11-23T23:09:49.051Z,100638.65
2017-11-23T23:11:51.345Z,100644.84
2017-11-23T23:14:10.920Z,100653.05
2017-11-23T23:24:29.535Z,100634.08
2017-11-23T23:26:31.731Z,100631.52
2017-11-23T23:28:33.750Z,100636.37
2017-11-23T23:30:35.764Z,100640.42
2017-11-23T23:32:37.756Z,100635.69
2017-11-23T23:34:39.571Z,100635.80
2017-11-23T23:36:42.547Z,100633.32
2017-11-23T23:38:44.776Z,100632.14
2017-11-23T23:40:46.974Z,100633.48
2017-11-23T23:42:49.028Z,100644.73
2017-11-23T23:44:51.308Z,100646.56
2017-11-23T23:55:20.656Z,100652.10
2017-11-23T23:57:22.725Z,100634.44
